createdAt,value
2019-02-05T00:01:35.004Z,93.10
2019-02-05T00:04:07.114Z,93.50
2019-02-05T00:06:41.134Z,93.50
2019-02-05T00:09:14.076Z,94.00
2019-02-05T00:11:50.517Z,94.00
2019-02-05T00:14:20.766Z,94.40
2019-02-05T00:16:53.195Z,95.00
2019-02-05T00:19:25.015Z,94.80
2019-02-05T00:21:54.830Z,95.10
2019-02-05T00:24:28.456Z,95.40
2019-02-05T00:26:59.134Z,95.60
2019-02-05T00:29:27.907Z,97.40
2019-02-05T00:32:06.782Z,99.00
2019-02-05T00:34:32.824Z,99.80
2019-02-05T00:37:03.542Z,99.90
2019-02-05T00:39:35.886Z,99.90
2019-02-05T00:42:08.741Z,99.90
2019-02-05T00:44:38.363Z,99.90
2019-02-05T00:47:12.615Z,99.90
2019-02-05T00:49:41.341Z,99.90
2019-02-05T00:52:11.166Z,99.90
2019-02-05T00:54:39.627Z,99.90
2019-02-05T00:57:26.046Z,99.90
2019-02-05T00:59:56.660Z,99.90
2019-02-05T01:02:31.626Z,99.90
2019-02-05T01:05:05.917Z,99.90
2019-02-05T01:07:48.994Z,99.90
2019-02-05T01:10:22.444Z,99.90
2019-02-05T01:12:55.761Z,99.90
2019-02-05T01:15:28.672Z,99.90
2019-02-05T01:18:11.498Z,99.90
2019-02-05T01:20:44.995Z,99.90
2019-02-05T01:23:20.174Z,99.90
2019-02-05T01:25:50.316Z,99.90
2019-02-05T01:28:30.647Z,99.90
2019-02-05T01:31:00.169Z,99.90
2019-02-05T01:33:30.803Z,99.90
2019-02-05T01:36:00.629Z,99.90
2019-02-05T01:38:36.457Z,99.90
2019-02-05T01:41:12.006Z,99.90
2019-02-05T01:43:45.529Z,99.90
2019-02-05T01:46:22.631Z,99.90
2019-02-05T01:49:19.169Z,99.90
2019-02-05T01:51:50.450Z,99.90
2019-02-05T01:54:27.071Z,99.90
2019-02-05T01:56:55.725Z,99.90
2019-02-05T01:59:32.305Z,99.90
2019-02-05T02:02:11.051Z,99.90
2019-02-05T02:04:39.533Z,99.90
2019-02-05T02:07:10.625Z,99.90
2019-02-05T02:09:49.210Z,99.90
2019-02-05T02:12:21.001Z,99.90
2019-02-05T02:14:53.669Z,99.90
2019-02-05T02:17:29.954Z,99.90
2019-02-05T02:20:04.249Z,99.90
2019-02-05T02:22:32.537Z,99.90
2019-02-05T02:25:01.038Z,99.90
2019-02-05T02:27:32.814Z,99.90
2019-02-05T02:30:02.379Z,99.90
2019-02-05T02:32:40.603Z,99.90
2019-02-05T02:35:11.818Z,99.90
2019-02-05T02:37:43.130Z,99.90
2019-02-05T02:40:15.186Z,99.90
2019-02-05T02:42:48.947Z,99.90
2019-02-05T02:45:17.275Z,99.90
2019-02-05T02:47:54.320Z,99.90
2019-02-05T02:50:25.716Z,99.90
2019-02-05T02:52:58.763Z,99.90
2019-02-05T02:55:37.931Z,99.90
2019-02-05T02:58:09.435Z,99.90
2019-02-05T03:00:37.545Z,99.90
2019-02-05T03:03:13.073Z,99.90
2019-02-05T03:05:44.387Z,99.90
2019-02-05T03:08:13.020Z,99.90
2019-02-05T03:10:42.325Z,99.90
2019-02-05T03:13:13.347Z,99.90
2019-02-05T03:16:05.286Z,99.90
2019-02-05T03:18:42.634Z,99.90
2019-02-05T03:21:17.213Z,99.90
2019-02-05T03:23:47.388Z,99.90
2019-02-05T03:26:22.025Z,99.90
2019-02-05T03:28:54.110Z,99.90
2019-02-05T03:31:25.427Z,99.90
2019-02-05T03:33:59.658Z,99.90
2019-02-05T03:36:31.218Z,99.90
2019-02-05T03:39:13.203Z,99.90
2019-02-05T03:41:42.996Z,99.90
2019-02-05T03:44:36.040Z,99.90
2019-02-05T03:47:08.565Z,99.90
2019-02-05T03:49:39.204Z,99.90
2019-02-05T03:52:32.449Z,99.90
2019-02-05T03:55:32.371Z,99.90
2019-02-05T03:58:57.786Z,99.90
2019-02-05T04:01:53.617Z,99.90
2019-02-05T04:05:15.749Z,99.90
2019-02-05T04:08:25.807Z,99.90
2019-02-05T04:11:41.837Z,99.90
2019-02-05T04:14:49.816Z,99.90
2019-02-05T04:17:55.020Z,99.90
2019-02-05T04:21:00.586Z,99.90
2019-02-05T04:24:24.341Z,99.90
2019-02-05T04:27:14.172Z,99.90
2019-02-05T04:30:13.770Z,99.90
2019-02-05T04:33:43.920Z,99.90
2019-02-05T04:36:44.644Z,99.90
2019-02-05T04:39:47.781Z,99.90
2019-02-05T04:43:06.914Z,99.90
2019-02-05T04:46:20.388Z,99.90
2019-02-05T04:49:27.455Z,99.90
2019-02-05T04:52:44.682Z,99.90
2019-02-05T04:55:40.201Z,99.90
2019-02-05T04:58:37.426Z,99.90
2019-02-05T05:01:34.656Z,99.90
2019-02-05T05:04:33.353Z,99.90
2019-02-05T05:07:58.054Z,99.90
2019-02-05T05:10:34.719Z,99.90
2019-02-05T05:13:02.972Z,99.90
2019-02-05T05:15:39.702Z,99.90
2019-02-05T05:18:08.559Z,99.90
2019-02-05T05:20:40.919Z,99.90
2019-02-05T05:23:11.442Z,99.90
2019-02-05T05:25:47.249Z,99.90
2019-02-05T05:28:19.405Z,99.90
2019-02-05T05:30:58.066Z,99.90
2019-02-05T05:33:26.917Z,99.90
2019-02-05T05:35:59.414Z,99.90
2019-02-05T05:38:29.842Z,99.90
2019-02-05T05:41:00.549Z,99.90
2019-02-05T05:43:30.402Z,99.90
2019-02-05T05:46:02.622Z,99.90
2019-02-05T05:48:32.208Z,99.90
2019-02-05T05:51:00.868Z,99.90
2019-02-05T05:53:32.101Z,99.90
2019-02-05T05:56:00.681Z,99.90
2019-02-05T05:58:30.282Z,99.90
2019-02-05T06:00:59.922Z,99.90
2019-02-05T06:03:31.002Z,99.90
2019-02-05T06:06:00.375Z,99.90
2019-02-05T06:08:34.319Z,99.90
2019-02-05T06:11:12.708Z,99.90
2019-02-05T06:13:51.968Z,99.90
2019-02-05T06:16:20.102Z,99.90
2019-02-05T06:18:48.250Z,99.90
2019-02-05T06:21:16.934Z,99.90
2019-02-05T06:23:45.223Z,99.90
2019-02-05T06:26:13.462Z,99.90
2019-02-05T06:28:42.171Z,99.90
2019-02-05T06:31:10.258Z,99.90
2019-02-05T06:33:38.502Z,99.90
2019-02-05T06:36:06.742Z,99.90
2019-02-05T06:38:34.987Z,99.90
2019-02-05T06:41:03.290Z,99.90
2019-02-05T06:43:31.434Z,99.90
2019-02-05T06:45:59.833Z,99.90
2019-02-05T06:48:28.181Z,99.90
2019-02-05T06:50:56.899Z,99.90
2019-02-05T06:53:25.787Z,99.90
2019-02-05T06:55:54.373Z,99.90
2019-02-05T06:58:22.621Z,99.90
2019-02-05T07:00:50.715Z,99.90
2019-02-05T07:03:19.258Z,99.90
2019-02-05T07:05:47.355Z,99.90
2019-02-05T07:08:15.493Z,99.90
2019-02-05T07:10:43.806Z,99.90
2019-02-05T07:13:11.954Z,99.90
2019-02-05T07:15:40.047Z,99.90
2019-02-05T07:18:08.406Z,99.90
2019-02-05T07:20:37.237Z,99.90
2019-02-05T07:23:05.686Z,99.90
2019-02-05T07:25:34.091Z,99.90
2019-02-05T07:28:02.218Z,99.90
2019-02-05T07:30:30.468Z,99.90
2019-02-05T07:32:58.886Z,99.90
2019-02-05T07:35:27.073Z,99.90
2019-02-05T07:37:55.861Z,99.90
2019-02-05T07:40:24.201Z,99.90
2019-02-05T07:42:52.394Z,99.90
2019-02-05T07:45:21.070Z,99.90
2019-02-05T07:47:49.427Z,99.90
2019-02-05T07:50:20.346Z,99.90
2019-02-05T07:52:48.637Z,99.90
2019-02-05T07:55:16.989Z,99.90
2019-02-05T07:57:45.778Z,99.90
2019-02-05T08:00:19.296Z,99.90
2019-02-05T08:02:47.686Z,99.90
2019-02-05T08:05:18.194Z,99.90
2019-02-05T08:07:46.890Z,99.90
2019-02-05T08:10:17.730Z,99.90
2019-02-05T08:12:46.589Z,99.90
2019-02-05T08:15:16.741Z,99.90
2019-02-05T08:17:45.129Z,99.90
2019-02-05T08:20:13.633Z,99.90
2019-02-05T08:22:42.223Z,99.90
2019-02-05T08:25:11.962Z,99.90
2019-02-05T08:27:40.249Z,99.90
2019-02-05T08:30:17.418Z,99.90
2019-02-05T08:32:45.850Z,99.90
2019-02-05T08:35:14.814Z,99.90
2019-02-05T08:37:43.058Z,99.90
2019-02-05T08:40:14.190Z,99.90
2019-02-05T08:42:42.539Z,99.90
2019-02-05T08:45:14.320Z,99.80
2019-02-05T08:47:42.865Z,99.40
2019-02-05T08:50:15.116Z,97.30
2019-02-05T08:52:47.954Z,95.90
2019-02-05T08:55:20.922Z,95.20
2019-02-05T08:57:49.766Z,94.60
2019-02-05T09:00:26.097Z,94.30
2019-02-05T09:02:54.478Z,92.70
2019-02-05T09:05:22.888Z,92.10
2019-02-05T09:07:51.098Z,91.50
2019-02-05T09:10:31.162Z,91.30
2019-02-05T09:13:02.446Z,91.40
2019-02-05T09:15:31.267Z,92.00
2019-02-05T09:17:59.874Z,91.30
2019-02-05T09:20:28.193Z,90.60
2019-02-05T09:22:59.098Z,90.20
2019-02-05T09:25:27.421Z,89.00
2019-02-05T09:27:55.810Z,86.30
2019-02-05T09:30:28.567Z,84.40
2019-02-05T09:32:58.282Z,82.80
2019-02-05T09:35:26.378Z,78.70
2019-02-05T09:37:57.575Z,79.40
2019-02-05T09:40:27.253Z,78.60
2019-02-05T09:42:55.662Z,76.60
2019-02-05T09:45:25.232Z,74.20
2019-02-05T09:47:57.489Z,72.00
2019-02-05T09:50:25.887Z,69.00
2019-02-05T09:52:54.191Z,66.80
2019-02-05T09:55:22.663Z,67.80
2019-02-05T09:57:51.323Z,68.80
2019-02-05T10:00:25.830Z,64.50
2019-02-05T10:02:55.558Z,66.80
2019-02-05T10:05:24.205Z,65.10
2019-02-05T10:07:52.634Z,66.70
2019-02-05T10:10:21.164Z,66.10
2019-02-05T10:12:49.513Z,66.30
2019-02-05T10:15:22.702Z,63.60
2019-02-05T10:17:50.918Z,65.10
2019-02-05T10:20:19.789Z,66.60
2019-02-05T10:22:49.421Z,66.20
2019-02-05T10:25:17.952Z,65.70
2019-02-05T10:27:46.164Z,66.30
2019-02-05T10:30:20.488Z,63.10
2019-02-05T10:32:48.791Z,64.90
2019-02-05T10:35:19.153Z,63.20
2019-02-05T10:37:48.303Z,63.50
2019-02-05T10:40:16.727Z,62.80
2019-02-05T10:42:45.041Z,62.70
2019-02-05T10:45:15.011Z,62.80
2019-02-05T10:47:43.318Z,62.60
2019-02-05T10:50:13.751Z,61.80
2019-02-05T10:52:43.579Z,63.00
2019-02-05T10:55:12.547Z,63.30
2019-02-05T10:57:40.899Z,63.80
2019-02-05T11:00:12.885Z,63.50
2019-02-05T11:02:41.203Z,63.50
2019-02-05T11:05:12.548Z,61.90
2019-02-05T11:07:41.171Z,63.00
2019-02-05T11:10:09.918Z,62.20
2019-02-05T11:12:38.928Z,62.20
2019-02-05T11:15:09.753Z,62.40
2019-02-05T11:17:38.016Z,61.40
2019-02-05T11:20:10.215Z,59.70
2019-02-05T11:22:38.770Z,60.50
2019-02-05T11:25:10.338Z,59.70
2019-02-05T11:27:39.026Z,59.50
2019-02-05T11:30:19.949Z,57.80
2019-02-05T11:32:41.674Z,58.60
2019-02-05T11:35:09.983Z,59.50
2019-02-05T11:37:41.407Z,59.60
2019-02-05T11:40:12.678Z,58.90
2019-02-05T11:42:40.887Z,58.70
2019-02-05T11:45:13.330Z,58.80
2019-02-05T11:47:44.386Z,58.30
2019-02-05T11:50:13.734Z,59.30
2019-02-05T11:52:42.056Z,59.00
2019-02-05T11:55:13.099Z,58.10
2019-02-05T11:57:41.584Z,58.30
2019-02-05T12:00:15.786Z,58.40
2019-02-05T12:02:44.546Z,57.90
2019-02-05T12:05:13.111Z,58.50
2019-02-05T12:07:41.478Z,57.90
2019-02-05T12:10:11.035Z,57.80
2019-02-05T12:12:39.255Z,58.40
2019-02-05T12:15:08.843Z,58.40
2019-02-05T12:17:37.378Z,57.90
2019-02-05T12:20:08.383Z,58.10
2019-02-05T12:22:37.163Z,58.70
2019-02-05T12:25:07.954Z,59.70
2019-02-05T12:27:36.925Z,58.80
2019-02-05T12:30:08.767Z,57.90
2019-02-05T12:32:37.170Z,58.30
2019-02-05T12:35:05.653Z,58.30
2019-02-05T12:37:33.911Z,58.80
2019-02-05T12:40:02.636Z,59.00
2019-02-05T12:42:32.309Z,59.10
2019-02-05T12:45:13.074Z,59.20
2019-02-05T12:47:43.335Z,59.10
2019-02-05T12:50:16.325Z,58.70
2019-02-05T12:52:44.670Z,59.00
2019-02-05T12:55:15.855Z,59.40
2019-02-05T12:57:46.770Z,59.20
2019-02-05T13:00:20.647Z,59.50
2019-02-05T13:02:49.128Z,59.40
2019-02-05T13:05:17.640Z,59.50
2019-02-05T13:07:45.811Z,59.70
2019-02-05T13:10:16.020Z,60.30
2019-02-05T13:12:44.244Z,60.50
2019-02-05T13:15:12.833Z,60.50
2019-02-05T13:17:41.470Z,61.30
2019-02-05T13:20:15.942Z,60.50
2019-02-05T13:22:44.300Z,61.70
2019-02-05T13:25:18.727Z,61.40
2019-02-05T13:27:47.840Z,61.40
2019-02-05T13:30:18.959Z,60.80
2019-02-05T13:32:47.179Z,59.30
2019-02-05T13:35:15.596Z,59.70
2019-02-05T13:37:43.959Z,61.10
2019-02-05T13:40:17.309Z,61.30
2019-02-05T13:42:45.704Z,63.00
2019-02-05T13:45:15.141Z,62.30
2019-02-05T13:47:43.442Z,62.40
2019-02-05T13:50:16.821Z,62.20
2019-02-05T13:52:45.558Z,63.10
2019-02-05T13:55:17.403Z,63.40
2019-02-05T13:57:45.731Z,63.90
2019-02-05T14:00:17.812Z,64.20
2019-02-05T14:02:46.176Z,64.10
2019-02-05T14:05:14.893Z,64.40
2019-02-05T14:07:43.478Z,64.50
2019-02-05T14:10:15.366Z,64.60
2019-02-05T14:12:43.786Z,64.50
2019-02-05T14:15:12.327Z,64.00
2019-02-05T14:17:40.639Z,64.90
2019-02-05T14:20:09.874Z,64.70
2019-02-05T14:22:38.773Z,65.00
2019-02-05T14:25:09.233Z,64.70
2019-02-05T14:27:37.417Z,64.70
2019-02-05T14:30:08.446Z,64.60
2019-02-05T14:32:36.681Z,64.90
2019-02-05T14:35:06.237Z,63.90
2019-02-05T14:37:34.443Z,64.90
2019-02-05T14:40:06.086Z,65.10
2019-02-05T14:42:36.021Z,64.80
2019-02-05T14:45:05.514Z,65.00
2019-02-05T14:47:33.853Z,64.80
2019-02-05T14:50:02.090Z,65.20
2019-02-05T14:52:30.394Z,65.00
2019-02-05T14:55:04.620Z,64.80
2019-02-05T14:57:31.189Z,65.10
2019-02-05T14:59:59.299Z,65.40
2019-02-05T15:02:27.862Z,65.80
2019-02-05T15:04:56.119Z,65.70
2019-02-05T15:07:24.443Z,66.10
2019-02-05T15:09:55.451Z,65.50
2019-02-05T15:12:23.814Z,65.40
2019-02-05T15:14:51.958Z,65.60
2019-02-05T15:17:20.075Z,66.20
2019-02-05T15:19:48.812Z,66.40
2019-02-05T15:22:17.282Z,66.70
2019-02-05T15:24:45.794Z,67.20
2019-02-05T15:27:14.088Z,67.30
2019-02-05T15:29:45.130Z,67.20
2019-02-05T15:32:32.118Z,67.30
2019-02-05T15:35:00.631Z,67.40
2019-02-05T15:37:28.877Z,67.50
2019-02-05T15:39:57.467Z,68.00
2019-02-05T15:42:26.087Z,67.90
2019-02-05T15:44:54.346Z,68.20
2019-02-05T15:47:23.967Z,68.20
2019-02-05T15:49:52.226Z,68.00
2019-02-05T15:52:20.359Z,68.00
2019-02-05T15:54:48.601Z,68.10
2019-02-05T15:57:16.909Z,68.10
2019-02-05T15:59:45.103Z,68.40
2019-02-05T16:02:16.482Z,68.60
2019-02-05T16:04:47.230Z,68.70
2019-02-05T16:07:15.347Z,68.70
2019-02-05T16:09:43.629Z,68.70
2019-02-05T16:12:11.930Z,68.40
2019-02-05T16:14:40.039Z,68.90
2019-02-05T16:17:11.207Z,69.80
2019-02-05T16:19:40.933Z,70.60
2019-02-05T16:22:09.910Z,70.90
2019-02-05T16:24:38.566Z,71.10
2019-02-05T16:27:06.798Z,71.30
2019-02-05T16:29:39.082Z,72.00
2019-02-05T16:32:17.315Z,72.40
2019-02-05T16:34:41.026Z,72.30
2019-02-05T16:37:09.726Z,72.90
2019-02-05T16:39:40.918Z,73.40
2019-02-05T16:42:09.494Z,73.90
2019-02-05T16:44:43.927Z,75.10
2019-02-05T16:47:13.729Z,75.00
2019-02-05T16:49:53.610Z,75.60
2019-02-05T16:52:24.737Z,76.00
2019-02-05T16:54:56.665Z,77.00
2019-02-05T16:57:24.969Z,77.80
2019-02-05T16:59:56.030Z,79.00
2019-02-05T17:02:31.357Z,79.90
2019-02-05T17:05:03.485Z,78.80
2019-02-05T17:07:31.745Z,75.80
2019-02-05T17:09:59.906Z,73.80
2019-02-05T17:12:28.397Z,72.00
2019-02-05T17:15:19.159Z,70.70
2019-02-05T17:17:49.516Z,70.30
2019-02-05T17:20:25.442Z,69.80
2019-02-05T17:22:54.130Z,69.20
2019-02-05T17:25:25.647Z,68.60
2019-02-05T17:27:54.718Z,68.90
2019-02-05T17:30:26.659Z,68.50
2019-02-05T17:32:58.160Z,68.90
2019-02-05T17:35:29.474Z,68.70
2019-02-05T17:37:58.814Z,68.90
2019-02-05T17:40:27.758Z,69.80
2019-02-05T17:42:56.074Z,68.80
2019-02-05T17:45:28.696Z,68.80
2019-02-05T17:48:09.158Z,69.00
2019-02-05T17:50:47.354Z,69.00
2019-02-05T17:53:16.865Z,69.60
2019-02-05T17:55:54.762Z,70.20
2019-02-05T17:58:32.010Z,71.30
2019-02-05T18:01:11.238Z,71.80
2019-02-05T18:03:48.218Z,72.60
2019-02-05T18:06:16.498Z,73.50
2019-02-05T18:09:17.619Z,74.20
2019-02-05T18:11:49.870Z,74.90
2019-02-05T18:14:23.625Z,75.40
2019-02-05T18:16:56.656Z,76.40
2019-02-05T18:19:29.931Z,75.70
2019-02-05T18:21:58.103Z,74.20
2019-02-05T18:24:29.351Z,75.20
2019-02-05T18:27:00.859Z,75.50
2019-02-05T18:29:37.343Z,76.60
2019-02-05T18:32:05.983Z,78.10
2019-02-05T18:34:35.200Z,78.90
2019-02-05T18:37:06.982Z,79.60
2019-02-05T18:39:43.570Z,80.30
2019-02-05T18:42:14.715Z,80.80
2019-02-05T18:44:48.329Z,81.10
2019-02-05T18:47:17.626Z,81.30
2019-02-05T18:49:47.206Z,81.70
2019-02-05T18:52:16.458Z,81.50
2019-02-05T18:54:47.722Z,81.30
2019-02-05T18:57:15.841Z,81.10
2019-02-05T18:59:45.225Z,81.40
2019-02-05T19:02:13.394Z,81.80
2019-02-05T19:04:41.664Z,82.30
2019-02-05T19:07:09.866Z,82.50
2019-02-05T19:09:38.026Z,83.50
2019-02-05T19:12:06.250Z,84.00
2019-02-05T19:14:35.183Z,84.10
2019-02-05T19:17:05.212Z,84.50
2019-02-05T19:19:34.322Z,84.70
2019-02-05T19:22:03.003Z,85.10
2019-02-05T19:24:59.804Z,85.40
2019-02-05T19:27:32.180Z,85.70
2019-02-05T19:30:03.415Z,85.70
2019-02-05T19:32:33.026Z,85.30
2019-02-05T19:35:01.128Z,83.90
2019-02-05T19:37:29.511Z,83.30
2019-02-05T19:39:57.665Z,83.80
2019-02-05T19:42:25.922Z,84.30
2019-02-05T19:45:11.239Z,84.60
2019-02-05T19:47:39.559Z,84.90
2019-02-05T19:50:07.933Z,86.30
2019-02-05T19:52:37.027Z,86.70
2019-02-05T19:55:05.574Z,87.70
2019-02-05T19:57:33.678Z,87.60
2019-02-05T20:00:02.517Z,88.10
2019-02-05T20:02:30.617Z,89.20
2019-02-05T20:04:58.847Z,89.00
2019-02-05T20:07:27.025Z,89.90
2019-02-05T20:09:55.133Z,90.00
2019-02-05T20:12:23.594Z,90.20
2019-02-05T20:14:52.134Z,90.30
2019-02-05T20:17:20.545Z,90.40
2019-02-05T20:19:48.641Z,90.30
2019-02-05T20:22:17.312Z,90.00
2019-02-05T20:24:45.641Z,90.00
2019-02-05T20:27:13.879Z,90.20
2019-02-05T20:29:42.035Z,90.50
2019-02-05T20:32:11.262Z,90.60
2019-02-05T20:34:40.099Z,91.00
2019-02-05T20:37:08.351Z,91.30
2019-02-05T20:39:37.003Z,91.50
2019-02-05T20:42:05.385Z,91.30
2019-02-05T20:44:33.589Z,90.90
2019-02-05T20:47:01.923Z,90.90
2019-02-05T20:49:30.724Z,91.50
2019-02-05T20:51:58.819Z,91.80
2019-02-05T20:54:27.094Z,92.20
2019-02-05T20:56:55.348Z,92.30
2019-02-05T20:59:23.613Z,92.70
2019-02-05T21:01:51.712Z,93.00
2019-02-05T21:04:19.886Z,93.20
2019-02-05T21:06:48.502Z,93.10
2019-02-05T21:09:21.316Z,93.40
2019-02-05T21:11:49.746Z,93.90
2019-02-05T21:14:18.312Z,94.10
2019-02-05T21:16:46.691Z,94.00
2019-02-05T21:19:14.917Z,94.10
2019-02-05T21:21:43.009Z,94.00
2019-02-05T21:24:11.489Z,94.00
2019-02-05T21:26:39.742Z,94.00
2019-02-05T21:29:08.105Z,94.30
2019-02-05T21:31:36.317Z,94.60
2019-02-05T21:34:15.150Z,94.90
2019-02-05T21:36:34.520Z,94.60
2019-02-05T21:39:04.922Z,94.50
2019-02-05T21:41:34.685Z,94.30
2019-02-05T21:44:05.067Z,94.20
2019-02-05T21:46:33.215Z,94.00
2019-02-05T21:49:01.413Z,94.00
2019-02-05T21:51:40.323Z,94.00
2019-02-05T21:53:59.593Z,93.90
2019-02-05T21:56:28.967Z,93.80
2019-02-05T21:58:57.543Z,93.70
2019-02-05T22:01:25.906Z,94.00
2019-02-05T22:03:54.102Z,93.90
2019-02-05T22:06:22.535Z,93.90
2019-02-05T22:08:50.773Z,94.00
2019-02-05T22:11:18.938Z,94.60
2019-02-05T22:13:47.401Z,94.90
2019-02-05T22:16:16.069Z,95.10
2019-02-05T22:18:44.217Z,95.10
2019-02-05T22:21:12.726Z,94.90
2019-02-05T22:23:40.981Z,94.70
2019-02-05T22:26:09.247Z,94.60
2019-02-05T22:28:37.550Z,94.80
2019-02-05T22:31:05.764Z,94.70
2019-02-05T22:33:34.024Z,94.40
2019-02-05T22:36:02.739Z,94.50
2019-02-05T22:38:30.963Z,94.40
2019-02-05T22:40:59.086Z,95.60
2019-02-05T22:43:27.590Z,95.30
2019-02-05T22:45:55.732Z,95.40
2019-02-05T22:48:24.231Z,95.50
2019-02-05T22:50:52.393Z,95.80
2019-02-05T22:53:20.593Z,96.40
2019-02-05T22:55:48.799Z,96.10
2019-02-05T22:58:17.450Z,95.80
2019-02-05T23:01:01.513Z,95.90
2019-02-05T23:03:33.490Z,95.70
2019-02-05T23:06:43.300Z,96.20
2019-02-05T23:09:17.242Z,96.30
2019-02-05T23:12:13.068Z,96.80
2019-02-05T23:14:42.062Z,97.00
2019-02-05T23:17:10.531Z,97.50
2019-02-05T23:19:38.951Z,97.50
2019-02-05T23:22:07.317Z,97.20
2019-02-05T23:24:35.502Z,98.40
2019-02-05T23:27:04.440Z,97.80
2019-02-05T23:29:32.755Z,97.40
2019-02-05T23:32:01.551Z,97.50
2019-02-05T23:34:29.694Z,97.90
2019-02-05T23:36:58.234Z,98.00
2019-02-05T23:39:26.461Z,98.60
2019-02-05T23:41:54.754Z,98.90
2019-02-05T23:44:23.038Z,99.50
2019-02-05T23:46:51.393Z,99.70
2019-02-05T23:49:19.582Z,99.60
2019-02-05T23:51:48.039Z,99.30
2019-02-05T23:54:16.389Z,99.10
2019-02-05T23:56:44.598Z,99.00
2019-02-05T23:59:12.738Z,99.40
